sensor_id;sensor_type;location;lat;lon;timestamp;pressure;altitude;pressure_sealevel;temperature;humidity
23473;BME280;11909;52.516;13.564;2023-08-08T00:02:21;100298.81;;;14.42;71.17
23473;BME280;11909;52.516;13.564;2023-08-08T00:04:49;100300.09;;;14.36;71.16
23473;BME280;11909;52.516;13.564;2023-08-08T00:07:17;100296.25;;;14.46;70.29
23473;BME280;11909;52.516;13.564;2023-08-08T00:09:45;100297.00;;;14.38;70.88
23473;BME280;11909;52.516;13.564;2023-08-08T00:12:13;100296.22;;;14.37;70.95
23473;BME280;11909;52.516;13.564;2023-08-08T00:14:41;100290.00;;;14.31;71.21
23473;BME280;11909;52.516;13.564;2023-08-08T00:17:09;100287.84;;;14.19;71.70
23473;BME280;11909;52.516;13.564;2023-08-08T00:19:38;100302.06;;;14.13;72.47
23473;BME280;11909;52.516;13.564;2023-08-08T00:22:06;100296.69;;;14.08;72.66
23473;BME280;11909;52.516;13.564;2023-08-08T00:24:34;100292.78;;;14.09;73.06
23473;BME280;11909;52.516;13.564;2023-08-08T00:27:02;100289.25;;;14.08;73.29
23473;BME280;11909;52.516;13.564;2023-08-08T00:29:30;100290.09;;;14.17;73.11
23473;BME280;11909;52.516;13.564;2023-08-08T00:31:58;100296.41;;;14.18;73.09
23473;BME280;11909;52.516;13.564;2023-08-08T00:34:26;100301.91;;;14.09;73.70
23473;BME280;11909;52.516;13.564;2023-08-08T00:36:55;100301.34;;;13.98;74.57
23473;BME280;11909;52.516;13.564;2023-08-08T00:39:23;100301.56;;;14.11;74.03
23473;BME280;11909;52.516;13.564;2023-08-08T00:41:51;100316.94;;;14.03;73.85
23473;BME280;11909;52.516;13.564;2023-08-08T00:44:19;100297.75;;;13.98;74.46
23473;BME280;11909;52.516;13.564;2023-08-08T00:46:46;100310.78;;;14.06;74.32
23473;BME280;11909;52.516;13.564;2023-08-08T00:49:14;100306.03;;;13.98;74.24
23473;BME280;11909;52.516;13.564;2023-08-08T00:51:43;100304.03;;;13.89;74.86
23473;BME280;11909;52.516;13.564;2023-08-08T00:54:12;100307.44;;;13.86;75.62
23473;BME280;11909;52.516;13.564;2023-08-08T00:56:41;100307.59;;;13.90;74.47
23473;BME280;11909;52.516;13.564;2023-08-08T00:59:11;100298.03;;;13.87;74.65
23473;BME280;11909;52.516;13.564;2023-08-08T01:01:41;100310.34;;;13.90;74.79
23473;BME280;11909;52.516;13.564;2023-08-08T01:04:09;100300.88;;;13.82;74.74
23473;BME280;11909;52.516;13.564;2023-08-08T01:06:42;100311.69;;;13.93;74.78
23473;BME280;11909;52.516;13.564;2023-08-08T01:09:19;100297.34;;;13.82;75.30
23473;BME280;11909;52.516;13.564;2023-08-08T01:11:49;100305.25;;;13.74;75.37
23473;BME280;11909;52.516;13.564;2023-08-08T01:14:19;100320.75;;;13.70;75.05
23473;BME280;11909;52.516;13.564;2023-08-08T01:16:48;100315.13;;;13.75;74.47
23473;BME280;11909;52.516;13.564;2023-08-08T01:19:23;100308.56;;;13.62;75.37
23473;BME280;11909;52.516;13.564;2023-08-08T01:21:53;100319.59;;;13.62;75.49
23473;BME280;11909;52.516;13.564;2023-08-08T01:24:24;100304.59;;;13.55;75.18
23473;BME280;11909;52.516;13.564;2023-08-08T01:26:55;100304.25;;;13.56;75.31
23473;BME280;11909;52.516;13.564;2023-08-08T01:29:23;100301.22;;;13.58;75.43
23473;BME280;11909;52.516;13.564;2023-08-08T01:31:51;100309.78;;;13.56;75.13
23473;BME280;11909;52.516;13.564;2023-08-08T01:34:19;100304.59;;;13.55;75.01
23473;BME280;11909;52.516;13.564;2023-08-08T01:36:49;100296.81;;;13.57;74.57
23473;BME280;11909;52.516;13.564;2023-08-08T01:39:25;100300.00;;;13.50;74.91
23473;BME280;11909;52.516;13.564;2023-08-08T01:41:54;100303.25;;;13.52;74.99
23473;BME280;11909;52.516;13.564;2023-08-08T01:44:23;100297.25;;;13.50;74.69
23473;BME280;11909;52.516;13.564;2023-08-08T01:46:52;100305.81;;;13.48;74.55
23473;BME280;11909;52.516;13.564;2023-08-08T01:49:20;100299.91;;;13.41;74.45
23473;BME280;11909;52.516;13.564;2023-08-08T01:51:48;100292.03;;;13.34;74.61
23473;BME280;11909;52.516;13.564;2023-08-08T01:54:17;100297.88;;;13.33;75.09
23473;BME280;11909;52.516;13.564;2023-08-08T01:56:46;100293.38;;;13.37;74.61
23473;BME280;11909;52.516;13.564;2023-08-08T01:59:15;100290.41;;;13.33;74.77
23473;BME280;11909;52.516;13.564;2023-08-08T02:01:42;100284.53;;;13.26;74.86
23473;BME280;11909;52.516;13.564;2023-08-08T02:04:11;100288.06;;;13.41;73.50
23473;BME280;11909;52.516;13.564;2023-08-08T02:06:38;100287.47;;;13.30;74.47
23473;BME280;11909;52.516;13.564;2023-08-08T02:09:07;100268.69;;;13.32;74.18
23473;BME280;11909;52.516;13.564;2023-08-08T02:11:34;100280.22;;;13.34;73.99
23473;BME280;11909;52.516;13.564;2023-08-08T02:14:04;100282.06;;;13.39;73.51
23473;BME280;11909;52.516;13.564;2023-08-08T02:16:32;100277.97;;;13.36;73.20
23473;BME280;11909;52.516;13.564;2023-08-08T02:19:01;100281.97;;;13.30;73.69
23473;BME280;11909;52.516;13.564;2023-08-08T02:21:29;100278.38;;;13.29;73.29
23473;BME280;11909;52.516;13.564;2023-08-08T02:23:57;100272.38;;;13.27;73.19
23473;BME280;11909;52.516;13.564;2023-08-08T02:26:25;100267.16;;;13.26;72.89
23473;BME280;11909;52.516;13.564;2023-08-08T02:28:53;100274.00;;;13.28;73.52
23473;BME280;11909;52.516;13.564;2023-08-08T02:31:22;100276.13;;;13.31;73.15
23473;BME280;11909;52.516;13.564;2023-08-08T02:33:50;100276.13;;;13.31;72.96
23473;BME280;11909;52.516;13.564;2023-08-08T02:36:19;100256.84;;;13.31;73.20
23473;BME280;11909;52.516;13.564;2023-08-08T02:38:46;100270.53;;;13.23;73.86
23473;BME280;11909;52.516;13.564;2023-08-08T02:41:16;100271.75;;;13.30;73.56
23473;BME280;11909;52.516;13.564;2023-08-08T02:43:44;100277.25;;;13.30;73.89
23473;BME280;11909;52.516;13.564;2023-08-08T02:46:12;100275.34;;;13.31;74.18
23473;BME280;11909;52.516;13.564;2023-08-08T02:48:41;100268.63;;;13.23;74.62
23473;BME280;11909;52.516;13.564;2023-08-08T02:51:09;100276.38;;;13.21;75.18
23473;BME280;11909;52.516;13.564;2023-08-08T02:53:37;100268.41;;;13.19;75.49
23473;BME280;11909;52.516;13.564;2023-08-08T02:56:05;100263.31;;;13.27;75.53
23473;BME280;11909;52.516;13.564;2023-08-08T02:58:33;100263.53;;;13.16;76.23
23473;BME280;11909;52.516;13.564;2023-08-08T03:01:01;100265.53;;;13.25;76.25
23473;BME280;11909;52.516;13.564;2023-08-08T03:03:29;100269.41;;;13.24;76.43
23473;BME280;11909;52.516;13.564;2023-08-08T03:05:58;100267.28;;;13.20;76.93
23473;BME280;11909;52.516;13.564;2023-08-08T03:08:26;100266.47;;;13.20;77.28
23473;BME280;11909;52.516;13.564;2023-08-08T03:10:55;100265.53;;;13.25;77.12
23473;BME280;11909;52.516;13.564;2023-08-08T03:13:22;100256.69;;;13.14;78.10
23473;BME280;11909;52.516;13.564;2023-08-08T03:15:50;100251.16;;;13.14;78.18
23473;BME280;11909;52.516;13.564;2023-08-08T03:18:18;100258.63;;;13.13;78.36
23473;BME280;11909;52.516;13.564;2023-08-08T03:20:46;100257.63;;;13.09;78.83
23473;BME280;11909;52.516;13.564;2023-08-08T03:23:15;100254.66;;;13.05;79.04
23473;BME280;11909;52.516;13.564;2023-08-08T03:25:43;100261.00;;;13.06;79.34
23473;BME280;11909;52.516;13.564;2023-08-08T03:28:11;100251.78;;;13.11;79.55
23473;BME280;11909;52.516;13.564;2023-08-08T03:30:39;100250.78;;;13.07;79.54
23473;BME280;11909;52.516;13.564;2023-08-08T03:33:07;100260.09;;;12.97;80.40
23473;BME280;11909;52.516;13.564;2023-08-08T03:35:35;100255.28;;;13.02;80.00
23473;BME280;11909;52.516;13.564;2023-08-08T03:38:03;100257.66;;;12.95;80.86
23473;BME280;11909;52.516;13.564;2023-08-08T03:40:32;100256.91;;;13.03;80.59
23473;BME280;11909;52.516;13.564;2023-08-08T03:43:00;100258.03;;;13.02;80.96
23473;BME280;11909;52.516;13.564;2023-08-08T03:45:28;100258.66;;;12.99;81.17
23473;BME280;11909;52.516;13.564;2023-08-08T03:47:56;100260.59;;;12.99;81.04
23473;BME280;11909;52.516;13.564;2023-08-08T03:50:24;100257.03;;;12.98;81.20
23473;BME280;11909;52.516;13.564;2023-08-08T03:52:52;100261.59;;;13.03;81.45
23473;BME280;11909;52.516;13.564;2023-08-08T03:55:20;100262.22;;;13.00;81.39
23473;BME280;11909;52.516;13.564;2023-08-08T03:57:49;100259.59;;;12.95;82.08
23473;BME280;11909;52.516;13.564;2023-08-08T04:00:17;100264.59;;;12.93;82.26
23473;BME280;11909;52.516;13.564;2023-08-08T04:02:46;100261.53;;;12.94;82.68
23473;BME280;11909;52.516;13.564;2023-08-08T04:05:13;100256.72;;;13.00;82.37
23473;BME280;11909;52.516;13.564;2023-08-08T04:07:42;100258.75;;;13.08;82.03
23473;BME280;11909;52.516;13.564;2023-08-08T04:10:10;100266.19;;;13.08;82.45
23473;BME280;11909;52.516;13.564;2023-08-08T04:12:38;100261.31;;;13.04;82.68
23473;BME280;11909;52.516;13.564;2023-08-08T04:15:08;100261.19;;;13.10;82.88
23473;BME280;11909;52.516;13.564;2023-08-08T04:17:37;100257.63;;;13.09;82.52
23473;BME280;11909;52.516;13.564;2023-08-08T04:20:06;100256.81;;;13.09;83.26
23473;BME280;11909;52.516;13.564;2023-08-08T04:22:34;100254.97;;;13.18;82.60
23473;BME280;11909;52.516;13.564;2023-08-08T04:25:04;100252.75;;;13.06;83.34
23473;BME280;11909;52.516;13.564;2023-08-08T04:27:32;100259.97;;;13.16;82.73
23473;BME280;11909;52.516;13.564;2023-08-08T04:30:00;100250.78;;;13.07;83.51
23473;BME280;11909;52.516;13.564;2023-08-08T04:32:29;100245.78;;;13.09;83.16
23473;BME280;11909;52.516;13.564;2023-08-08T04:34:57;100246.00;;;13.12;83.26
23473;BME280;11909;52.516;13.564;2023-08-08T04:37:25;100245.16;;;13.12;83.32
23473;BME280;11909;52.516;13.564;2023-08-08T04:39:53;100241.81;;;13.15;83.36
23473;BME280;11909;52.516;13.564;2023-08-08T04:42:21;100260.06;;;13.11;83.54
23473;BME280;11909;52.516;13.564;2023-08-08T04:44:49;100247.13;;;13.11;83.98
23473;BME280;11909;52.516;13.564;2023-08-08T04:47:16;100243.84;;;13.09;83.92
23473;BME280;11909;52.516;13.564;2023-08-08T04:49:46;100249.66;;;13.08;84.65
23473;BME280;11909;52.516;13.564;2023-08-08T04:52:14;100250.56;;;13.17;84.15
23473;BME280;11909;52.516;13.564;2023-08-08T04:54:42;100247.81;;;13.17;84.13
23473;BME280;11909;52.516;13.564;2023-08-08T04:57:10;100258.91;;;13.26;83.49
23473;BME280;11909;52.516;13.564;2023-08-08T04:59:38;100251.59;;;13.21;84.18
23473;BME280;11909;52.516;13.564;2023-08-08T05:02:06;100251.16;;;13.28;84.24
23473;BME280;11909;52.516;13.564;2023-08-08T05:04:34;100261.97;;;13.24;84.50
23473;BME280;11909;52.516;13.564;2023-08-08T05:07:04;100257.88;;;13.22;84.16
23473;BME280;11909;52.516;13.564;2023-08-08T05:09:32;100273.22;;;13.28;83.75
23473;BME280;11909;52.516;13.564;2023-08-08T05:12:00;100256.53;;;13.33;83.79
23473;BME280;11909;52.516;13.564;2023-08-08T05:14:29;100254.84;;;13.23;84.82
23473;BME280;11909;52.516;13.564;2023-08-08T05:16:57;100262.47;;;13.26;84.52
23473;BME280;11909;52.516;13.564;2023-08-08T05:19:25;100266.63;;;13.38;83.78
23473;BME280;11909;52.516;13.564;2023-08-08T05:21:53;100253.38;;;13.26;84.45
23473;BME280;11909;52.516;13.564;2023-08-08T05:24:22;100259.44;;;13.28;84.96
23473;BME280;11909;52.516;13.564;2023-08-08T05:26:50;100273.22;;;13.28;84.57
23473;BME280;11909;52.516;13.564;2023-08-08T05:29:19;100268.56;;;13.37;84.41
23473;BME280;11909;52.516;13.564;2023-08-08T05:31:47;100266.22;;;13.44;83.79
23473;BME280;11909;52.516;13.564;2023-08-08T05:34:15;100266.63;;;13.38;84.19
23473;BME280;11909;52.516;13.564;2023-08-08T05:36:43;100264.31;;;13.31;85.07
23473;BME280;11909;52.516;13.564;2023-08-08T05:39:11;100259.28;;;13.47;83.63
23473;BME280;11909;52.516;13.564;2023-08-08T05:41:41;100261.94;;;13.38;84.77
23473;BME280;11909;52.516;13.564;2023-08-08T05:44:08;100260.91;;;13.48;83.93
23473;BME280;11909;52.516;13.564;2023-08-08T05:46:36;100255.91;;;13.50;84.47
23473;BME280;11909;52.516;13.564;2023-08-08T05:49:04;100258.34;;;13.52;84.38
23473;BME280;11909;52.516;13.564;2023-08-08T05:51:33;100275.47;;;13.62;84.33
23473;BME280;11909;52.516;13.564;2023-08-08T05:54:01;100263.59;;;13.62;83.84
23473;BME280;11909;52.516;13.564;2023-08-08T05:56:34;100264.81;;;13.70;84.02
23473;BME280;11909;52.516;13.564;2023-08-08T05:59:04;100264.03;;;13.78;83.30
23473;BME280;11909;52.516;13.564;2023-08-08T06:01:32;100265.38;;;13.81;84.51
23473;BME280;11909;52.516;13.564;2023-08-08T06:04:01;100261.03;;;13.88;83.01
23473;BME280;11909;52.516;13.564;2023-08-08T06:06:30;100260.41;;;13.91;82.72
23473;BME280;11909;52.516;13.564;2023-08-08T06:08:58;100263.31;;;13.86;83.18
23473;BME280;11909;52.516;13.564;2023-08-08T06:11:26;100254.06;;;13.91;82.79
23473;BME280;11909;52.516;13.564;2023-08-08T06:13:54;100260.78;;;13.99;82.58
23473;BME280;11909;52.516;13.564;2023-08-08T06:16:23;100268.41;;;14.02;83.13
23473;BME280;11909;52.516;13.564;2023-08-08T06:18:51;100273.19;;;14.10;82.25
23473;BME280;11909;52.516;13.564;2023-08-08T06:21:20;100276.69;;;14.02;82.95
23473;BME280;11909;52.516;13.564;2023-08-08T06:23:47;100273.75;;;13.98;83.53
23473;BME280;11909;52.516;13.564;2023-08-08T06:26:16;100260.53;;;14.09;82.54
23473;BME280;11909;52.516;13.564;2023-08-08T06:28:43;100281.56;;;14.05;83.33
23473;BME280;11909;52.516;13.564;2023-08-08T06:31:11;100276.16;;;14.23;81.81
23473;BME280;11909;52.516;13.564;2023-08-08T06:33:40;100270.72;;;14.09;83.22
23473;BME280;11909;52.516;13.564;2023-08-08T06:36:09;100268.88;;;14.27;82.65
23473;BME280;11909;52.516;13.564;2023-08-08T06:38:36;100263.72;;;14.34;81.77
23473;BME280;11909;52.516;13.564;2023-08-08T06:41:04;100259.50;;;14.37;81.69
23473;BME280;11909;52.516;13.564;2023-08-08T06:43:32;100258.69;;;14.36;82.41
23473;BME280;11909;52.516;13.564;2023-08-08T06:46:00;100276.06;;;14.37;83.02
23473;BME280;11909;52.516;13.564;2023-08-08T06:48:28;100277.03;;;14.32;83.17
23473;BME280;11909;52.516;13.564;2023-08-08T06:50:57;100276.09;;;14.45;81.46
23473;BME280;11909;52.516;13.564;2023-08-08T06:53:25;100270.56;;;14.45;81.84
23473;BME280;11909;52.516;13.564;2023-08-08T06:55:53;100279.03;;;14.49;82.23
23473;BME280;11909;52.516;13.564;2023-08-08T06:58:21;100270.28;;;14.47;82.26
23473;BME280;11909;52.516;13.564;2023-08-08T07:00:50;100271.56;;;14.49;81.77
23473;BME280;11909;52.516;13.564;2023-08-08T07:03:18;100274.97;;;14.46;81.86
23473;BME280;11909;52.516;13.564;2023-08-08T07:05:46;100268.50;;;14.51;81.65
23473;BME280;11909;52.516;13.564;2023-08-08T07:08:20;100264.56;;;14.43;83.12
23473;BME280;11909;52.516;13.564;2023-08-08T07:10:48;100279.69;;;14.46;83.62
23473;BME280;11909;52.516;13.564;2023-08-08T07:13:16;100286.66;;;14.43;83.20
23473;BME280;11909;52.516;13.564;2023-08-08T07:15:44;100264.41;;;14.48;82.91
23473;BME280;11909;52.516;13.564;2023-08-08T07:18:12;100282.94;;;14.48;82.97
23473;BME280;11909;52.516;13.564;2023-08-08T07:20:40;100285.09;;;14.60;82.10
23473;BME280;11909;52.516;13.564;2023-08-08T07:23:08;100281.34;;;14.65;81.33
23473;BME280;11909;52.516;13.564;2023-08-08T07:25:37;100282.03;;;14.70;81.48
23473;BME280;11909;52.516;13.564;2023-08-08T07:28:05;100281.63;;;14.86;80.24
23473;BME280;11909;52.516;13.564;2023-08-08T07:30:33;100295.63;;;14.89;80.05
23473;BME280;11909;52.516;13.564;2023-08-08T07:33:01;100280.72;;;14.99;79.59
23473;BME280;11909;52.516;13.564;2023-08-08T07:35:29;100295.50;;;15.03;79.64
23473;BME280;11909;52.516;13.564;2023-08-08T07:37:57;100296.00;;;15.05;79.33
23473;BME280;11909;52.516;13.564;2023-08-08T07:40:25;100282.66;;;15.08;78.90
23473;BME280;11909;52.516;13.564;2023-08-08T07:42:55;100273.88;;;14.97;80.49
23473;BME280;11909;52.516;13.564;2023-08-08T07:45:22;100287.53;;;15.11;78.95
23473;BME280;11909;52.516;13.564;2023-08-08T07:47:51;100287.53;;;15.11;79.35
23473;BME280;11909;52.516;13.564;2023-08-08T07:50:19;100290.47;;;15.05;78.54
23473;BME280;11909;52.516;13.564;2023-08-08T07:52:46;100290.47;;;15.14;77.81
23473;BME280;11909;52.516;13.564;2023-08-08T07:55:14;100287.09;;;15.35;77.37
23473;BME280;11909;52.516;13.564;2023-08-08T07:57:42;100279.13;;;15.33;77.03
23473;BME280;11909;52.516;13.564;2023-08-08T08:00:13;100274.25;;;15.39;77.84
23473;BME280;11909;52.516;13.564;2023-08-08T08:02:46;100311.97;;;15.44;75.05
23473;BME280;11909;52.516;13.564;2023-08-08T08:05:14;100284.47;;;15.30;75.67
23473;BME280;11909;52.516;13.564;2023-08-08T08:07:42;100302.38;;;15.32;76.12
23473;BME280;11909;52.516;13.564;2023-08-08T08:10:11;100293.25;;;15.32;76.48
23473;BME280;11909;52.516;13.564;2023-08-08T08:12:40;100297.66;;;15.42;76.08
23473;BME280;11909;52.516;13.564;2023-08-08T08:15:09;100300.09;;;15.34;76.98
23473;BME280;11909;52.516;13.564;2023-08-08T08:17:39;100282.06;;;15.37;77.06
23473;BME280;11909;52.516;13.564;2023-08-08T08:20:09;100293.59;;;15.48;76.32
23473;BME280;11909;52.516;13.564;2023-08-08T08:22:38;100283.69;;;15.47;76.23
23473;BME280;11909;52.516;13.564;2023-08-08T08:25:06;100276.34;;;15.51;75.87
23473;BME280;11909;52.516;13.564;2023-08-08T08:27:36;100272.47;;;15.52;76.78
23473;BME280;11909;52.516;13.564;2023-08-08T08:30:05;100274.88;;;15.80;74.92
23473;BME280;11909;52.516;13.564;2023-08-08T08:32:33;100284.97;;;15.85;75.35
23473;BME280;11909;52.516;13.564;2023-08-08T08:35:03;100271.47;;;15.92;75.17
23473;BME280;11909;52.516;13.564;2023-08-08T08:37:33;100271.44;;;16.01;74.89
23473;BME280;11909;52.516;13.564;2023-08-08T08:40:01;100274.03;;;16.06;75.09
23473;BME280;11909;52.516;13.564;2023-08-08T08:42:32;100270.28;;;16.11;74.04
23473;BME280;11909;52.516;13.564;2023-08-08T08:45:01;100273.03;;;16.19;72.72
23473;BME280;11909;52.516;13.564;2023-08-08T08:47:31;100280.84;;;16.26;72.59
23473;BME280;11909;52.516;13.564;2023-08-08T08:50:00;100292.00;;;16.39;70.78
23473;BME280;11909;52.516;13.564;2023-08-08T08:52:32;100279.47;;;16.41;69.42
23473;BME280;11909;52.516;13.564;2023-08-08T08:55:00;100285.34;;;16.31;70.25
23473;BME280;11909;52.516;13.564;2023-08-08T08:57:29;100284.22;;;16.32;69.68
23473;BME280;11909;52.516;13.564;2023-08-08T08:59:57;100279.81;;;16.31;70.19
23473;BME280;11909;52.516;13.564;2023-08-08T09:02:25;100282.09;;;16.38;70.05
23473;BME280;11909;52.516;13.564;2023-08-08T09:04:53;100297.53;;;16.47;68.85
23473;BME280;11909;52.516;13.564;2023-08-08T09:07:23;100284.13;;;16.58;68.90
23473;BME280;11909;52.516;13.564;2023-08-08T09:09:54;100290.47;;;16.59;68.39
23473;BME280;11909;52.516;13.564;2023-08-08T09:12:24;100285.91;;;16.63;69.35
23473;BME280;11909;52.516;13.564;2023-08-08T09:14:54;100277.88;;;16.70;68.45
23473;BME280;11909;52.516;13.564;2023-08-08T09:17:24;100288.75;;;16.75;68.12
23473;BME280;11909;52.516;13.564;2023-08-08T09:20:12;100272.38;;;16.91;70.01
23473;BME280;11909;52.516;13.564;2023-08-08T09:22:41;100272.81;;;17.02;68.80
23473;BME280;11909;52.516;13.564;2023-08-08T09:25:10;100276.06;;;17.04;67.14
23473;BME280;11909;52.516;13.564;2023-08-08T09:27:41;100283.44;;;17.00;67.26
23473;BME280;11909;52.516;13.564;2023-08-08T09:30:10;100260.59;;;17.03;68.12
23473;BME280;11909;52.516;13.564;2023-08-08T09:32:38;100266.66;;;16.97;68.66
23473;BME280;11909;52.516;13.564;2023-08-08T09:35:07;100264.34;;;17.29;68.62
23473;BME280;11909;52.516;13.564;2023-08-08T09:37:36;100266.09;;;17.33;66.03
23473;BME280;11909;52.516;13.564;2023-08-08T09:40:06;100260.94;;;17.23;66.65
23473;BME280;11909;52.516;13.564;2023-08-08T09:42:37;100265.97;;;17.30;65.76
23473;BME280;11909;52.516;13.564;2023-08-08T09:45:06;100261.22;;;17.09;65.72
23473;BME280;11909;52.516;13.564;2023-08-08T09:47:35;100262.03;;;17.31;65.33
23473;BME280;11909;52.516;13.564;2023-08-08T09:50:06;100267.56;;;17.31;66.31
23473;BME280;11909;52.516;13.564;2023-08-08T09:52:35;100256.81;;;17.51;64.65
23473;BME280;11909;52.516;13.564;2023-08-08T09:55:06;100250.81;;;17.48;65.29
23473;BME280;11909;52.516;13.564;2023-08-08T09:57:35;100253.97;;;17.59;64.69
23473;BME280;11909;52.516;13.564;2023-08-08T10:00:06;100263.53;;;17.83;63.19
23473;BME280;11909;52.516;13.564;2023-08-08T10:02:43;100260.63;;;17.80;62.58
23473;BME280;11909;52.516;13.564;2023-08-08T10:05:13;100244.13;;;17.83;63.61
23473;BME280;11909;52.516;13.564;2023-08-08T10:07:42;100252.53;;;17.74;61.58
23473;BME280;11909;52.516;13.564;2023-08-08T10:10:11;100244.13;;;17.62;62.11
23473;BME280;11909;52.516;13.564;2023-08-08T10:12:40;100252.88;;;17.52;61.93
23473;BME280;11909;52.516;13.564;2023-08-08T10:15:10;100255.59;;;17.39;67.15
23473;BME280;11909;52.516;13.564;2023-08-08T10:17:39;100245.63;;;16.96;73.49
23473;BME280;11909;52.516;13.564;2023-08-08T10:20:09;100252.59;;;16.72;77.65
23473;BME280;11909;52.516;13.564;2023-08-08T10:22:38;100236.13;;;16.45;78.67
23473;BME280;11909;52.516;13.564;2023-08-08T10:25:18;100229.00;;;16.36;78.00
23473;BME280;11909;52.516;13.564;2023-08-08T10:27:47;100220.06;;;16.30;80.29
23473;BME280;11909;52.516;13.564;2023-08-08T10:30:15;100221.44;;;16.45;77.75
23473;BME280;11909;52.516;13.564;2023-08-08T10:32:44;100229.28;;;16.43;78.01
23473;BME280;11909;52.516;13.564;2023-08-08T10:35:14;100227.13;;;16.48;74.25
23473;BME280;11909;52.516;13.564;2023-08-08T10:37:52;100212.47;;;16.48;74.02
23473;BME280;11909;52.516;13.564;2023-08-08T10:40:21;100211.81;;;16.51;77.66
23473;BME280;11909;52.516;13.564;2023-08-08T10:42:51;100223.28;;;17.01;71.53
23473;BME280;11909;52.516;13.564;2023-08-08T10:45:20;100231.94;;;17.42;69.31
23473;BME280;11909;52.516;13.564;2023-08-08T10:47:47;100231.56;;;17.65;68.08
23473;BME280;11909;52.516;13.564;2023-08-08T10:50:23;100216.16;;;18.01;69.68
23473;BME280;11909;52.516;13.564;2023-08-08T10:52:53;100223.97;;;18.32;61.53
23473;BME280;11909;52.516;13.564;2023-08-08T10:55:22;100210.78;;;18.29;63.30
23473;BME280;11909;52.516;13.564;2023-08-08T10:57:58;100224.19;;;18.27;60.53
23473;BME280;11909;52.516;13.564;2023-08-08T11:00:28;100232.88;;;18.13;61.52
23473;BME280;11909;52.516;13.564;2023-08-08T11:02:59;100238.25;;;17.97;60.72
23473;BME280;11909;52.516;13.564;2023-08-08T11:05:28;100233.75;;;17.38;69.07
23473;BME280;11909;52.516;13.564;2023-08-08T11:07:58;100213.66;;;16.98;72.49
23473;BME280;11909;52.516;13.564;2023-08-08T11:10:26;100208.88;;;16.77;73.88
23473;BME280;11909;52.516;13.564;2023-08-08T11:13:00;100207.34;;;16.89;75.13
23473;BME280;11909;52.516;13.564;2023-08-08T11:15:30;100212.84;;;16.98;73.52
23473;BME280;11909;52.516;13.564;2023-08-08T11:18:00;100204.63;;;17.10;73.94
23473;BME280;11909;52.516;13.564;2023-08-08T11:20:29;100218.13;;;17.33;68.54
23473;BME280;11909;52.516;13.564;2023-08-08T11:22:59;100214.22;;;17.68;67.66
23473;BME280;11909;52.516;13.564;2023-08-08T11:25:28;100221.22;;;17.99;67.83
23473;BME280;11909;52.516;13.564;2023-08-08T11:27:59;100216.56;;;18.24;64.80
23473;BME280;11909;52.516;13.564;2023-08-08T11:30:29;100215.88;;;18.52;62.79
23473;BME280;11909;52.516;13.564;2023-08-08T11:32:58;100219.66;;;18.85;61.54
23473;BME280;11909;52.516;13.564;2023-08-08T11:35:30;100221.88;;;18.79;63.40
23473;BME280;11909;52.516;13.564;2023-08-08T11:37:58;100242.63;;;18.69;60.63
23473;BME280;11909;52.516;13.564;2023-08-08T11:40:28;100251.31;;;18.43;62.33
23473;BME280;11909;52.516;13.564;2023-08-08T11:42:58;100262.47;;;18.09;65.00
23473;BME280;11909;52.516;13.564;2023-08-08T11:45:26;100284.88;;;17.70;62.42
23473;BME280;11909;52.516;13.564;2023-08-08T11:47:55;100278.13;;;17.38;61.37
23473;BME280;11909;52.516;13.564;2023-08-08T11:50:24;100282.81;;;17.25;62.40
23473;BME280;11909;52.516;13.564;2023-08-08T11:52:55;100272.28;;;17.09;62.69
23473;BME280;11909;52.516;13.564;2023-08-08T11:55:27;100254.09;;;16.99;64.44
23473;BME280;11909;52.516;13.564;2023-08-08T11:57:57;100251.03;;;16.92;66.24
23473;BME280;11909;52.516;13.564;2023-08-08T12:00:29;100244.81;;;16.95;67.46
23473;BME280;11909;52.516;13.564;2023-08-08T12:02:59;100237.56;;;17.12;67.96
23473;BME280;11909;52.516;13.564;2023-08-08T12:05:28;100249.56;;;17.37;64.33
23473;BME280;11909;52.516;13.564;2023-08-08T12:07:58;100227.84;;;17.60;66.14
23473;BME280;11909;52.516;13.564;2023-08-08T12:10:26;100231.63;;;17.89;64.55
23473;BME280;11909;52.516;13.564;2023-08-08T12:12:56;100245.34;;;18.07;61.58
23473;BME280;11909;52.516;13.564;2023-08-08T12:15:32;100237.16;;;18.11;63.25
23473;BME280;11909;52.516;13.564;2023-08-08T12:18:02;100236.25;;;18.19;62.83
23473;BME280;11909;52.516;13.564;2023-08-08T12:20:31;100229.66;;;18.36;64.67
23473;BME280;11909;52.516;13.564;2023-08-08T12:22:59;100231.28;;;18.62;63.91
23473;BME280;11909;52.516;13.564;2023-08-08T12:25:27;100233.81;;;18.80;62.95
23473;BME280;11909;52.516;13.564;2023-08-08T12:27:55;100254.44;;;19.03;60.37
23473;BME280;11909;52.516;13.564;2023-08-08T12:30:23;100231.84;;;19.05;60.07
23473;BME280;11909;52.516;13.564;2023-08-08T12:32:52;100238.28;;;19.22;60.12
23473;BME280;11909;52.516;13.564;2023-08-08T12:35:21;100234.88;;;19.41;58.32
23473;BME280;11909;52.516;13.564;2023-08-08T12:37:49;100234.16;;;19.44;58.07
23473;BME280;11909;52.516;13.564;2023-08-08T12:40:17;100239.44;;;19.61;56.92
23473;BME280;11909;52.516;13.564;2023-08-08T12:42:45;100250.44;;;19.58;54.82
23473;BME280;11909;52.516;13.564;2023-08-08T12:45:14;100243.69;;;19.30;55.84
23473;BME280;11909;52.516;13.564;2023-08-08T12:47:44;100236.13;;;19.15;57.23
23473;BME280;11909;52.516;13.564;2023-08-08T12:50:13;100257.19;;;18.91;57.44